Time;durP1;ratioP1;P1;durP2;ratioP2;P2;SDS_P1;SDS_P2;PMS_P1;PMS_P2;Temp;Humidity;BMP_temperature;BMP_pressure;BME280_temperature;BME280_humidity;BME280_pressure;Samples;Min_cycle;Max_cycle;Signal;HPM_P1;HPM_P2
2022/11/27 00:00:24;;;;;;;13.97;10.03;;;;;;;;;;5094125;28;20172;-76
2022/11/27 00:02:50;;;;;;;14.50;9.57;;;;;;;;;;5084248;28;20295;-76
2022/11/27 00:05:16;;;;;;;13.43;8.83;;;;;;;;;;5090574;28;20195;-76
2022/11/27 00:07:42;;;;;;;14.80;9.60;;;;;;;;;;5102220;28;20200;-76
2022/11/27 00:10:09;;;;;;;14.20;9.27;;;;;;;;;;5099513;28;20632;-76
2022/11/27 00:12:35;;;;;;;12.40;8.63;;;;;;;;;;5105066;28;20176;-76
2022/11/27 00:15:02;;;;;;;14.67;9.43;;;;;;;;;;5077634;28;20264;-76
2022/11/27 00:17:28;;;;;;;14.23;10.37;;;;;;;;;;5087983;28;20651;-76
2022/11/27 00:19:54;;;;;;;16.50;10.10;;;;;;;;;;5093144;28;20203;-76
2022/11/27 00:22:20;;;;;;;13.03;9.20;;;;;;;;;;5090321;28;20195;-76
2022/11/27 00:24:47;;;;;;;15.13;10.17;;;;;;;;;;5099057;28;20280;-76
2022/11/27 00:27:14;;;;;;;15.13;10.07;;;;;;;;;;5100144;28;20207;-76
2022/11/27 00:29:40;;;;;;;17.03;10.20;;;;;;;;;;5092839;28;20229;-76
2022/11/27 00:32:07;;;;;;;17.70;9.43;;;;;;;;;;5086038;28;20181;-76
2022/11/27 00:34:33;;;;;;;14.37;9.50;;;;;;;;;;5079015;28;20245;-76
2022/11/27 00:36:59;;;;;;;16.73;10.13;;;;;;;;;;5082003;28;20212;-75
2022/11/27 00:39:26;;;;;;;13.93;8.63;;;;;;;;;;5097176;28;20181;-76
2022/11/27 00:41:53;;;;;;;16.90;9.13;;;;;;;;;;5092255;28;20749;-75
2022/11/27 00:44:19;;;;;;;13.70;8.87;;;;;;;;;;5092532;28;20225;-76
2022/11/27 00:46:45;;;;;;;16.77;10.17;;;;;;;;;;5079573;28;20196;-76
2022/11/27 00:49:13;;;;;;;14.57;9.90;;;;;;;;;;5097203;28;20190;-76
2022/11/27 00:51:39;;;;;;;15.83;9.37;;;;;;;;;;5097444;28;20168;-76
2022/11/27 00:54:05;;;;;;;12.83;8.90;;;;;;;;;;5102412;28;20191;-76
2022/11/27 00:56:36;;;;;;;17.83;9.73;;;;;;;;;;5093030;28;20711;-76
2022/11/27 00:59:02;;;;;;;14.37;9.73;;;;;;;;;;5079179;28;20691;-76
2022/11/27 01:01:47;;;;;;;15.17;9.43;;;;;;;;;;5091545;28;20258;-76
2022/11/27 01:04:14;;;;;;;11.40;8.47;;;;;;;;;;5087989;28;20176;-76
2022/11/27 01:06:41;;;;;;;13.63;8.47;;;;;;;;;;5095341;28;20224;-76
2022/11/27 01:09:07;;;;;;;12.87;8.77;;;;;;;;;;5087607;28;20660;-76
2022/11/27 01:11:34;;;;;;;15.63;9.93;;;;;;;;;;5080433;28;20183;-76
2022/11/27 01:14:02;;;;;;;14.07;9.07;;;;;;;;;;5094658;28;20184;-76
2022/11/27 01:16:29;;;;;;;18.63;9.67;;;;;;;;;;5063690;28;20232;-77
2022/11/27 01:18:57;;;;;;;18.07;10.93;;;;;;;;;;5061872;28;20268;-77
2022/11/27 01:21:23;;;;;;;17.03;9.60;;;;;;;;;;5097382;28;20615;-76
2022/11/27 01:23:50;;;;;;;14.57;9.20;;;;;;;;;;5089207;28;20208;-76
2022/11/27 01:26:17;;;;;;;15.13;9.87;;;;;;;;;;5096758;28;20211;-76
2022/11/27 01:28:43;;;;;;;13.60;9.00;;;;;;;;;;5084100;28;20195;-76
2022/11/27 01:31:15;;;;;;;15.10;9.67;;;;;;;;;;5088030;28;20174;-76
2022/11/27 01:33:41;;;;;;;17.20;9.90;;;;;;;;;;5087706;28;20204;-77
2022/11/27 01:36:08;;;;;;;15.57;8.83;;;;;;;;;;5072885;28;20668;-77
2022/11/27 01:38:34;;;;;;;15.03;9.67;;;;;;;;;;5095836;28;20272;-76
2022/11/27 01:41:02;;;;;;;14.43;9.10;;;;;;;;;;5094265;28;20219;-76
2022/11/27 01:43:39;;;;;;;14.47;8.77;;;;;;;;;;5089510;28;20181;-76
2022/11/27 01:46:24;;;;;;;12.77;8.40;;;;;;;;;;5083756;28;20184;-77
2022/11/27 01:48:52;;;;;;;13.50;9.57;;;;;;;;;;5091025;28;20205;-77
2022/11/27 01:51:19;;;;;;;15.53;9.70;;;;;;;;;;5098155;28;20188;-77
2022/11/27 01:53:45;;;;;;;12.53;8.97;;;;;;;;;;5087233;28;20185;-77
2022/11/27 01:56:11;;;;;;;15.60;9.70;;;;;;;;;;5081508;28;21692;-77
2022/11/27 01:58:38;;;;;;;18.07;10.30;;;;;;;;;;5094580;28;20191;-77
2022/11/27 02:01:05;;;;;;;12.60;8.43;;;;;;;;;;5094799;28;20675;-77
2022/11/27 02:03:33;;;;;;;14.97;10.13;;;;;;;;;;5079970;28;20203;-77
2022/11/27 02:05:59;;;;;;;11.00;7.97;;;;;;;;;;5093732;28;20697;-77
2022/11/27 02:08:26;;;;;;;15.23;10.00;;;;;;;;;;5089823;28;20203;-76
2022/11/27 02:10:53;;;;;;;17.27;9.57;;;;;;;;;;5084734;28;20184;-76
2022/11/27 02:13:27;;;;;;;14.70;8.77;;;;;;;;;;5090438;28;20172;-76
2022/11/27 02:15:53;;;;;;;17.10;9.00;;;;;;;;;;5104287;28;20690;-76
2022/11/27 02:18:38;;;;;;;14.60;8.90;;;;;;;;;;5087844;28;20174;-76
2022/11/27 02:21:10;;;;;;;15.03;10.17;;;;;;;;;;5081750;28;20303;-77
2022/11/27 02:23:44;;;;;;;15.10;9.13;;;;;;;;;;5089848;28;20263;-77
2022/11/27 02:26:11;;;;;;;14.73;9.37;;;;;;;;;;5087307;28;20279;-77
2022/11/27 02:28:53;;;;;;;15.70;10.17;;;;;;;;;;5084863;28;20191;-76
2022/11/27 02:31:31;;;;;;;13.90;9.33;;;;;;;;;;5080214;28;20888;-76
2022/11/27 02:34:00;;;;;;;19.67;10.83;;;;;;;;;;5095787;28;20172;-76
2022/11/27 02:36:29;;;;;;;14.77;9.60;;;;;;;;;;5090708;28;20286;-77
2022/11/27 02:39:01;;;;;;;12.03;9.13;;;;;;;;;;5086563;28;20221;-77
2022/11/27 02:41:34;;;;;;;11.30;8.43;;;;;;;;;;5098109;28;20203;-77
2022/11/27 02:44:00;;;;;;;13.73;9.00;;;;;;;;;;5091880;28;20183;-77
2022/11/27 02:46:27;;;;;;;16.23;9.70;;;;;;;;;;5070753;28;20200;-77
2022/11/27 02:49:01;;;;;;;14.03;9.97;;;;;;;;;;5077554;28;20271;-76
2022/11/27 02:51:36;;;;;;;15.03;9.73;;;;;;;;;;5077949;28;20600;-77
2022/11/27 02:54:04;;;;;;;13.20;8.77;;;;;;;;;;5081207;28;20225;-76
2022/11/27 02:56:31;;;;;;;10.37;8.43;;;;;;;;;;5075732;28;20258;-76
2022/11/27 02:58:59;;;;;;;8.87;7.13;;;;;;;;;;5077567;28;20203;-76
2022/11/27 03:01:29;;;;;;;8.37;6.23;;;;;;;;;;5087313;28;20208;-76
2022/11/27 03:03:56;;;;;;;8.90;6.60;;;;;;;;;;5080856;28;20231;-76
2022/11/27 03:06:28;;;;;;;12.07;6.30;;;;;;;;;;5058498;28;20274;-76
2022/11/27 03:08:55;;;;;;;13.80;8.43;;;;;;;;;;5084735;28;20202;-76
2022/11/27 03:11:21;;;;;;;18.40;9.10;;;;;;;;;;5080934;28;20188;-76
2022/11/27 03:13:49;;;;;;;19.03;10.20;;;;;;;;;;5086158;28;20189;-76
2022/11/27 03:16:26;;;;;;;18.27;9.73;;;;;;;;;;5083215;28;20204;-76
2022/11/27 03:18:52;;;;;;;13.17;8.60;;;;;;;;;;5072925;28;20219;-76
2022/11/27 03:21:32;;;;;;;7.97;6.60;;;;;;;;;;5091333;28;20204;-76
2022/11/27 03:23:58;;;;;;;6.17;5.30;;;;;;;;;;5081844;28;20546;-76
2022/11/27 03:26:25;;;;;;;6.30;5.70;;;;;;;;;;5092698;28;20269;-76
2022/11/27 03:28:52;;;;;;;5.87;5.23;;;;;;;;;;5089040;28;20181;-76
2022/11/27 03:31:19;;;;;;;7.07;5.87;;;;;;;;;;5094411;28;20269;-76
2022/11/27 03:33:45;;;;;;;5.97;5.37;;;;;;;;;;5082506;28;20177;-76
2022/11/27 03:36:13;;;;;;;9.10;6.27;;;;;;;;;;5090313;28;20172;-76
2022/11/27 03:38:39;;;;;;;8.00;6.80;;;;;;;;;;5083963;28;20199;-76
2022/11/27 03:41:10;;;;;;;7.57;6.27;;;;;;;;;;5083008;28;20208;-76
2022/11/27 03:43:41;;;;;;;7.10;6.40;;;;;;;;;;5102820;28;20180;-77
2022/11/27 03:46:14;;;;;;;8.27;6.97;;;;;;;;;;5096809;28;20172;-77
2022/11/27 03:48:47;;;;;;;7.63;6.43;;;;;;;;;;5073014;28;20423;-77
2022/11/27 03:51:19;;;;;;;7.60;6.43;;;;;;;;;;5105503;28;20240;-77
2022/11/27 03:53:48;;;;;;;7.17;6.03;;;;;;;;;;5073285;28;20181;-77
2022/11/27 03:56:14;;;;;;;7.13;5.93;;;;;;;;;;5094867;28;20200;-77
2022/11/27 03:58:44;;;;;;;7.53;6.43;;;;;;;;;;5098775;28;20631;-76
2022/11/27 04:01:12;;;;;;;7.50;6.10;;;;;;;;;;5090499;28;20200;-76
2022/11/27 04:03:38;;;;;;;11.43;7.23;;;;;;;;;;5090444;28;20207;-76
2022/11/27 04:06:04;;;;;;;11.47;7.87;;;;;;;;;;5075583;28;20272;-76
2022/11/27 04:08:31;;;;;;;12.07;7.67;;;;;;;;;;5090707;28;20180;-76
2022/11/27 04:10:57;;;;;;;11.33;7.90;;;;;;;;;;5092839;28;20799;-76
2022/11/27 04:13:23;;;;;;;11.43;7.83;;;;;;;;;;5081257;28;20259;-76
2022/11/27 04:15:49;;;;;;;10.40;7.60;;;;;;;;;;5088517;28;20184;-76
2022/11/27 04:18:15;;;;;;;13.20;8.10;;;;;;;;;;5085576;28;20207;-77
2022/11/27 04:20:41;;;;;;;14.30;9.03;;;;;;;;;;5077500;28;20257;-76
2022/11/27 04:23:08;;;;;;;11.83;8.97;;;;;;;;;;5077393;28;20268;-76
2022/11/27 04:25:35;;;;;;;8.63;7.23;;;;;;;;;;5086710;28;20189;-76
2022/11/27 04:28:01;;;;;;;9.47;7.27;;;;;;;;;;5095920;28;20200;-76
2022/11/27 04:30:27;;;;;;;10.03;7.30;;;;;;;;;;5077221;28;20172;-76
2022/11/27 04:32:53;;;;;;;8.60;6.53;;;;;;;;;;5091591;28;20595;-76
2022/11/27 04:35:19;;;;;;;9.27;6.40;;;;;;;;;;5096098;28;20589;-76
2022/11/27 04:37:45;;;;;;;9.47;6.73;;;;;;;;;;5081587;28;20282;-76
2022/11/27 04:40:12;;;;;;;9.10;7.03;;;;;;;;;;5064422;28;20189;-76
2022/11/27 04:42:38;;;;;;;10.03;6.93;;;;;;;;;;5089553;28;20215;-76
2022/11/27 04:45:04;;;;;;;11.67;8.10;;;;;;;;;;5085659;28;20173;-76
2022/11/27 04:47:31;;;;;;;12.03;8.47;;;;;;;;;;5065462;28;20199;-76
2022/11/27 04:49:57;;;;;;;15.30;9.07;;;;;;;;;;5078678;28;20177;-76
2022/11/27 04:52:23;;;;;;;17.77;10.53;;;;;;;;;;5077285;28;20230;-77
2022/11/27 04:54:49;;;;;;;15.77;9.97;;;;;;;;;;5094516;28;20233;-77
2022/11/27 04:57:15;;;;;;;14.13;9.63;;;;;;;;;;5085141;28;20196;-76
2022/11/27 04:59:41;;;;;;;21.37;11.10;;;;;;;;;;5101145;28;20881;-76
2022/11/27 05:02:07;;;;;;;18.93;10.77;;;;;;;;;;5065941;28;20224;-76
2022/11/27 05:04:34;;;;;;;21.10;10.97;;;;;;;;;;5099336;28;20186;-76
2022/11/27 05:07:00;;;;;;;30.93;12.07;;;;;;;;;;5067934;28;20249;-76
2022/11/27 05:09:26;;;;;;;32.13;10.43;;;;;;;;;;5089540;28;20265;-76
2022/11/27 05:11:52;;;;;;;34.77;12.27;;;;;;;;;;5084802;28;20210;-76
2022/11/27 05:14:20;;;;;;;34.77;11.53;;;;;;;;;;5094370;28;20230;-77
2022/11/27 05:16:48;;;;;;;22.40;11.07;;;;;;;;;;5090632;28;20231;-77
2022/11/27 05:19:15;;;;;;;22.97;10.53;;;;;;;;;;5086702;28;20717;-77
2022/11/27 05:21:42;;;;;;;34.33;11.27;;;;;;;;;;5081702;28;20196;-77
2022/11/27 05:24:09;;;;;;;27.23;11.90;;;;;;;;;;5093489;28;20182;-77
2022/11/27 05:26:35;;;;;;;32.03;11.97;;;;;;;;;;5092470;28;20617;-77
2022/11/27 05:29:01;;;;;;;47.07;14.17;;;;;;;;;;5100857;28;20199;-77
2022/11/27 05:31:27;;;;;;;27.00;13.30;;;;;;;;;;5053906;28;20184;-77
2022/11/27 05:33:54;;;;;;;32.70;13.00;;;;;;;;;;5084192;28;20597;-77
2022/11/27 05:36:20;;;;;;;24.93;13.00;;;;;;;;;;5096634;28;20208;-76
2022/11/27 05:38:46;;;;;;;68.83;14.23;;;;;;;;;;5083704;28;20264;-76
2022/11/27 05:41:12;;;;;;;33.80;12.63;;;;;;;;;;5083681;28;20318;-76
2022/11/27 05:43:39;;;;;;;29.20;12.27;;;;;;;;;;5089555;28;20180;-76
2022/11/27 05:46:08;;;;;;;29.90;14.07;;;;;;;;;;5091403;28;20184;-77
2022/11/27 05:48:35;;;;;;;33.70;13.03;;;;;;;;;;5080296;28;20335;-77
2022/11/27 05:51:01;;;;;;;25.97;12.40;;;;;;;;;;5065478;28;20188;-77
2022/11/27 05:53:28;;;;;;;31.63;12.77;;;;;;;;;;5093119;28;20260;-77
2022/11/27 05:55:54;;;;;;;22.67;11.23;;;;;;;;;;5081903;28;20173;-77
2022/11/27 05:58:20;;;;;;;26.50;11.93;;;;;;;;;;5088868;28;20187;-77
2022/11/27 06:00:46;;;;;;;52.20;14.63;;;;;;;;;;5091442;28;20187;-77
2022/11/27 06:03:13;;;;;;;42.47;14.47;;;;;;;;;;5082893;28;20587;-78
2022/11/27 06:05:39;;;;;;;41.40;14.20;;;;;;;;;;5077420;28;20403;-73
2022/11/27 06:08:05;;;;;;;23.93;13.57;;;;;;;;;;5082238;28;20204;-74
2022/11/27 06:10:31;;;;;;;33.70;13.57;;;;;;;;;;5086728;28;20195;-75
2022/11/27 06:12:58;;;;;;;60.97;15.37;;;;;;;;;;5091685;28;20663;-74
2022/11/27 06:15:24;;;;;;;64.67;16.13;;;;;;;;;;5088327;28;20662;-74
2022/11/27 06:17:51;;;;;;;48.50;16.73;;;;;;;;;;5094893;28;20215;-74
2022/11/27 06:20:19;;;;;;;44.30;14.80;;;;;;;;;;5057477;28;20176;-74
2022/11/27 06:22:45;;;;;;;33.90;15.20;;;;;;;;;;5090973;28;20289;-75
2022/11/27 06:25:11;;;;;;;39.60;15.80;;;;;;;;;;5089199;28;20262;-73
2022/11/27 06:27:37;;;;;;;49.50;16.77;;;;;;;;;;5090300;28;20242;-74
2022/11/27 06:30:04;;;;;;;24.47;14.30;;;;;;;;;;5085136;28;20180;-74
2022/11/27 06:32:31;;;;;;;39.87;15.37;;;;;;;;;;5078639;28;20991;-74
2022/11/27 06:34:57;;;;;;;37.33;13.77;;;;;;;;;;5075363;28;20317;-73
2022/11/27 06:37:23;;;;;;;33.30;13.80;;;;;;;;;;5082262;28;20209;-74
2022/11/27 06:39:50;;;;;;;19.30;12.57;;;;;;;;;;5079189;28;20637;-76
2022/11/27 06:42:16;;;;;;;28.20;12.97;;;;;;;;;;5069563;28;20201;-74
2022/11/27 06:44:42;;;;;;;30.87;13.73;;;;;;;;;;5085039;28;20704;-75
2022/11/27 06:47:08;;;;;;;19.10;11.57;;;;;;;;;;5079457;28;20727;-79
2022/11/27 06:49:35;;;;;;;34.53;14.87;;;;;;;;;;5076755;28;20173;-75
2022/11/27 06:52:01;;;;;;;32.50;15.13;;;;;;;;;;5086715;28;20606;-73
2022/11/27 06:54:27;;;;;;;17.60;13.30;;;;;;;;;;5082636;28;20565;-73
2022/11/27 06:56:53;;;;;;;26.77;14.63;;;;;;;;;;5068618;28;20815;-73
2022/11/27 06:59:19;;;;;;;33.33;14.17;;;;;;;;;;5081317;28;20192;-73
2022/11/27 07:01:46;;;;;;;30.47;13.57;;;;;;;;;;5081238;28;20295;-74
2022/11/27 07:04:13;;;;;;;39.77;15.67;;;;;;;;;;5075724;28;20200;-73
2022/11/27 07:06:41;;;;;;;71.77;16.50;;;;;;;;;;5061257;28;20634;-73
2022/11/27 07:09:07;;;;;;;27.63;16.23;;;;;;;;;;5076163;28;20589;-73
2022/11/27 07:11:33;;;;;;;45.60;16.77;;;;;;;;;;5081717;28;20225;-73
2022/11/27 07:14:01;;;;;;;71.17;17.50;;;;;;;;;;5077033;28;20691;-73
2022/11/27 07:16:28;;;;;;;21.60;14.10;;;;;;;;;;5080790;28;20199;-73
2022/11/27 07:18:56;;;;;;;31.73;15.20;;;;;;;;;;5075052;28;20177;-73
2022/11/27 07:21:22;;;;;;;43.87;17.33;;;;;;;;;;5066487;28;20338;-73
2022/11/27 07:23:48;;;;;;;39.67;17.13;;;;;;;;;;5086610;28;20180;-73
2022/11/27 07:26:15;;;;;;;36.60;16.63;;;;;;;;;;5074983;28;20304;-73
2022/11/27 07:28:42;;;;;;;23.23;15.13;;;;;;;;;;5068942;28;20842;-73
2022/11/27 07:31:09;;;;;;;23.30;16.30;;;;;;;;;;5072752;28;20181;-73
2022/11/27 07:33:36;;;;;;;52.73;17.60;;;;;;;;;;5076990;28;20278;-76
2022/11/27 07:36:04;;;;;;;36.93;18.77;;;;;;;;;;5084811;28;20822;-76
2022/11/27 07:38:30;;;;;;;34.70;17.17;;;;;;;;;;5080219;28;20179;-75
2022/11/27 07:41:03;;;;;;;44.87;20.20;;;;;;;;;;5087714;28;20180;-75
2022/11/27 07:43:29;;;;;;;30.10;15.77;;;;;;;;;;5078042;28;20181;-74
2022/11/27 07:46:04;;;;;;;35.93;17.43;;;;;;;;;;5078653;28;20179;-75
2022/11/27 07:48:30;;;;;;;27.73;16.77;;;;;;;;;;5078568;28;20176;-74
2022/11/27 07:50:56;;;;;;;27.30;16.37;;;;;;;;;;5067287;28;20326;-74
2022/11/27 07:53:22;;;;;;;26.83;16.27;;;;;;;;;;5084602;28;20628;-74
2022/11/27 07:55:48;;;;;;;31.13;15.80;;;;;;;;;;5079895;28;20185;-74
2022/11/27 07:58:14;;;;;;;41.00;16.60;;;;;;;;;;5086331;28;20196;-74
2022/11/27 08:00:41;;;;;;;23.70;14.67;;;;;;;;;;5077899;28;20192;-74
2022/11/27 08:03:07;;;;;;;34.67;15.90;;;;;;;;;;5084991;28;20727;-74
2022/11/27 08:05:34;;;;;;;54.40;17.13;;;;;;;;;;5085094;28;20727;-74
2022/11/27 08:08:02;;;;;;;25.00;15.57;;;;;;;;;;5083138;28;20324;-74
2022/11/27 08:10:29;;;;;;;22.37;14.33;;;;;;;;;;5061117;28;20185;-74
2022/11/27 08:12:55;;;;;;;23.50;14.53;;;;;;;;;;5080058;28;20245;-75
2022/11/27 08:15:21;;;;;;;29.20;15.33;;;;;;;;;;5081991;28;20187;-74
2022/11/27 08:17:47;;;;;;;39.63;15.80;;;;;;;;;;5080720;28;20208;-75
2022/11/27 08:20:14;;;;;;;22.30;14.77;;;;;;;;;;5081963;28;20202;-74
2022/11/27 08:22:40;;;;;;;22.57;14.67;;;;;;;;;;5081169;28;20755;-74
2022/11/27 08:25:06;;;;;;;23.23;15.43;;;;;;;;;;5062568;28;20177;-75
2022/11/27 08:27:33;;;;;;;27.13;14.87;;;;;;;;;;5067118;28;20573;-75
2022/11/27 08:29:59;;;;;;;32.10;15.33;;;;;;;;;;5085540;28;20184;-75
2022/11/27 08:32:25;;;;;;;22.30;14.07;;;;;;;;;;5083801;28;20187;-74
2022/11/27 08:34:51;;;;;;;19.43;13.87;;;;;;;;;;5084403;28;20184;-75
2022/11/27 08:37:18;;;;;;;19.87;14.00;;;;;;;;;;5086396;28;20739;-75
2022/11/27 08:39:44;;;;;;;21.33;13.20;;;;;;;;;;5088257;28;20220;-75
2022/11/27 08:42:10;;;;;;;20.37;14.20;;;;;;;;;;5085672;28;20552;-75
2022/11/27 08:44:36;;;;;;;19.37;13.77;;;;;;;;;;5087274;28;20702;-75
2022/11/27 08:47:02;;;;;;;20.37;13.53;;;;;;;;;;5086258;28;20200;-75
2022/11/27 08:49:28;;;;;;;16.50;12.00;;;;;;;;;;5088745;28;20195;-75
2022/11/27 08:51:54;;;;;;;21.53;13.67;;;;;;;;;;5084987;28;20188;-75
2022/11/27 08:54:21;;;;;;;18.50;13.90;;;;;;;;;;5084394;28;20679;-74
2022/11/27 08:56:47;;;;;;;17.13;12.93;;;;;;;;;;5085028;28;20640;-74
2022/11/27 08:59:13;;;;;;;22.77;14.17;;;;;;;;;;5087128;28;20729;-74
2022/11/27 09:01:39;;;;;;;28.77;14.70;;;;;;;;;;5086191;28;20281;-74
2022/11/27 09:04:05;;;;;;;24.40;16.13;;;;;;;;;;5078060;28;20712;-74
2022/11/27 09:06:33;;;;;;;28.27;17.23;;;;;;;;;;5059109;28;20227;-74
2022/11/27 09:09:00;;;;;;;27.77;15.90;;;;;;;;;;5082245;28;20536;-75
2022/11/27 09:11:28;;;;;;;27.60;17.17;;;;;;;;;;5080597;28;20966;-74
2022/11/27 09:13:54;;;;;;;33.33;18.87;;;;;;;;;;5064395;28;20307;-75
2022/11/27 09:16:21;;;;;;;35.77;19.50;;;;;;;;;;5082804;28;20212;-75
2022/11/27 09:18:49;;;;;;;26.73;16.07;;;;;;;;;;5080575;28;20192;-75
2022/11/27 09:21:17;;;;;;;21.43;14.80;;;;;;;;;;5064715;28;20208;-74
2022/11/27 09:23:44;;;;;;;24.97;16.03;;;;;;;;;;5082296;28;20188;-74
2022/11/27 09:26:11;;;;;;;20.43;14.23;;;;;;;;;;5083825;28;20188;-74
2022/11/27 09:28:38;;;;;;;25.10;14.67;;;;;;;;;;5084923;28;21382;-75
2022/11/27 09:31:05;;;;;;;26.97;15.80;;;;;;;;;;5083814;28;20537;-75
2022/11/27 09:33:32;;;;;;;23.70;16.47;;;;;;;;;;5061311;28;20271;-75
2022/11/27 09:35:58;;;;;;;23.93;15.40;;;;;;;;;;5083766;28;20735;-75
2022/11/27 09:38:24;;;;;;;26.73;16.97;;;;;;;;;;5080150;28;20173;-75
2022/11/27 09:40:52;;;;;;;30.53;17.10;;;;;;;;;;5064899;28;20698;-75
2022/11/27 09:43:22;;;;;;;24.27;15.80;;;;;;;;;;5082205;28;20193;-75
2022/11/27 09:45:53;;;;;;;22.40;15.40;;;;;;;;;;5083903;28;20652;-75
2022/11/27 09:48:46;;;;;;;26.63;17.53;;;;;;;;;;5084553;28;20211;-75
2022/11/27 09:51:17;;;;;;;27.63;17.30;;;;;;;;;;5076650;28;20204;-75
2022/11/27 09:53:47;;;;;;;32.23;17.93;;;;;;;;;;5079212;28;20249;-75
2022/11/27 09:56:15;;;;;;;27.67;17.00;;;;;;;;;;5080714;28;20257;-74
2022/11/27 09:58:43;;;;;;;30.57;16.57;;;;;;;;;;5083778;28;20814;-75
2022/11/27 10:01:13;;;;;;;29.83;17.70;;;;;;;;;;5083216;28;20182;-75
2022/11/27 10:03:42;;;;;;;31.43;17.90;;;;;;;;;;5080178;28;20200;-75
2022/11/27 10:06:26;;;;;;;25.00;16.23;;;;;;;;;;5065197;28;20789;-74
2022/11/27 10:09:05;;;;;;;24.70;15.97;;;;;;;;;;5063538;28;21477;-75
2022/11/27 10:11:34;;;;;;;23.70;15.87;;;;;;;;;;5075621;28;20187;-75
2022/11/27 10:14:13;;;;;;;23.87;16.60;;;;;;;;;;5082431;28;20537;-74
2022/11/27 10:16:51;;;;;;;29.50;16.67;;;;;;;;;;5078526;28;20293;-75
2022/11/27 10:19:26;;;;;;;36.13;19.80;;;;;;;;;;5079337;28;20671;-75
2022/11/27 10:21:56;;;;;;;30.73;18.43;;;;;;;;;;5083458;28;20208;-75
2022/11/27 10:24:28;;;;;;;27.33;16.97;;;;;;;;;;5083874;28;20255;-75
2022/11/27 10:26:58;;;;;;;25.93;17.17;;;;;;;;;;5059320;28;21082;-75
2022/11/27 10:29:35;;;;;;;26.70;17.20;;;;;;;;;;5061149;28;20275;-75
2022/11/27 10:32:10;;;;;;;35.73;21.80;;;;;;;;;;5082976;28;20188;-75
2022/11/27 10:34:39;;;;;;;27.93;19.00;;;;;;;;;;5060950;28;20212;-74
2022/11/27 10:37:15;;;;;;;32.20;20.37;;;;;;;;;;5081015;28;20216;-75
2022/11/27 10:39:44;;;;;;;27.03;17.83;;;;;;;;;;5076716;28;20226;-74
2022/11/27 10:42:13;;;;;;;21.50;15.30;;;;;;;;;;5062283;28;20307;-75
2022/11/27 10:44:41;;;;;;;22.47;15.77;;;;;;;;;;5076547;28;20169;-74
2022/11/27 10:47:09;;;;;;;24.47;16.90;;;;;;;;;;5078469;28;20210;-75
2022/11/27 10:49:38;;;;;;;23.40;16.20;;;;;;;;;;5080834;28;20686;-74
2022/11/27 10:52:04;;;;;;;24.13;16.53;;;;;;;;;;5081821;28;20196;-74
2022/11/27 10:54:36;;;;;;;23.07;16.00;;;;;;;;;;5081433;28;20180;-74
2022/11/27 10:57:17;;;;;;;23.20;16.20;;;;;;;;;;5083086;28;20200;-75
2022/11/27 11:00:22;;;;;;;25.60;18.03;;;;;;;;;;5078793;28;20314;-75
2022/11/27 11:02:49;;;;;;;26.00;17.47;;;;;;;;;;5039200;28;20878;-75
2022/11/27 11:05:19;;;;;;;27.03;17.83;;;;;;;;;;5033738;28;20182;-73
2022/11/27 11:07:55;;;;;;;25.10;17.73;;;;;;;;;;5043075;28;20193;-73
2022/11/27 11:10:24;;;;;;;25.90;18.10;;;;;;;;;;5084264;28;20186;-75
2022/11/27 11:13:02;;;;;;;24.37;17.47;;;;;;;;;;5084428;28;20188;-75
2022/11/27 11:15:28;;;;;;;22.67;15.93;;;;;;;;;;5085251;28;20261;-76
2022/11/27 11:17:55;;;;;;;23.80;16.77;;;;;;;;;;5083327;28;20224;-76
2022/11/27 11:20:22;;;;;;;24.53;17.17;;;;;;;;;;5086751;28;20268;-76
2022/11/27 11:22:49;;;;;;;23.83;15.30;;;;;;;;;;5085142;28;20944;-81
2022/11/27 11:25:16;;;;;;;24.37;17.23;;;;;;;;;;5074926;28;20192;-82
2022/11/27 11:27:43;;;;;;;24.57;17.60;;;;;;;;;;5073390;28;20203;-82
2022/11/27 11:30:28;;;;;;;24.63;16.67;;;;;;;;;;5082470;28;20180;-80
2022/11/27 11:33:01;;;;;;;24.87;17.87;;;;;;;;;;5084706;28;20200;-83
2022/11/27 11:35:31;;;;;;;21.60;15.80;;;;;;;;;;5076793;28;20188;-83
2022/11/27 11:37:57;;;;;;;22.23;15.87;;;;;;;;;;5082152;28;20212;-83
2022/11/27 11:40:29;;;;;;;22.23;16.13;;;;;;;;;;5058865;28;20675;-82
2022/11/27 11:42:58;;;;;;;22.90;16.67;;;;;;;;;;5055980;28;20212;-82
2022/11/27 11:45:24;;;;;;;23.73;17.37;;;;;;;;;;5091314;28;20184;-83
2022/11/27 11:47:54;;;;;;;23.37;17.23;;;;;;;;;;5079046;28;20193;-83
2022/11/27 11:50:24;;;;;;;23.90;17.53;;;;;;;;;;5067315;28;20184;-83
2022/11/27 11:52:56;;;;;;;23.77;17.67;;;;;;;;;;5073869;28;20194;-82
2022/11/27 11:55:26;;;;;;;23.43;16.77;;;;;;;;;;5068527;28;20180;-82
2022/11/27 11:58:02;;;;;;;20.20;15.60;;;;;;;;;;5079346;28;20279;-83
2022/11/27 12:00:42;;;;;;;22.20;16.30;;;;;;;;;;5074300;28;20199;-83
2022/11/27 12:03:08;;;;;;;18.33;14.77;;;;;;;;;;5077701;28;20203;-79
2022/11/27 12:05:38;;;;;;;19.13;14.20;;;;;;;;;;5085707;28;20187;-82
2022/11/27 12:08:23;;;;;;;19.30;14.77;;;;;;;;;;5088427;28;20287;-82
2022/11/27 12:10:52;;;;;;;18.00;13.43;;;;;;;;;;5042857;28;20293;-81
2022/11/27 12:13:21;;;;;;;19.57;14.10;;;;;;;;;;5075068;28;20212;-82
2022/11/27 12:16:11;;;;;;;17.77;12.93;;;;;;;;;;5080957;28;20195;-80
2022/11/27 12:18:37;;;;;;;20.30;15.10;;;;;;;;;;5071470;28;20556;-81
2022/11/27 12:21:14;;;;;;;20.33;15.13;;;;;;;;;;5070341;28;20188;-83
2022/11/27 12:23:43;;;;;;;20.93;15.90;;;;;;;;;;5074274;28;20581;-82
2022/11/27 12:26:09;;;;;;;22.87;15.97;;;;;;;;;;5084657;28;20220;-77
2022/11/27 12:28:36;;;;;;;20.47;15.37;;;;;;;;;;5082918;28;20192;-77
2022/11/27 12:31:06;;;;;;;21.90;15.80;;;;;;;;;;5085445;28;20180;-76
2022/11/27 12:33:35;;;;;;;21.63;16.50;;;;;;;;;;5081330;28;20656;-77
2022/11/27 12:36:08;;;;;;;21.23;16.23;;;;;;;;;;5073779;28;20804;-78
2022/11/27 12:38:43;;;;;;;17.27;13.67;;;;;;;;;;5089228;28;20189;-78
2022/11/27 12:41:28;;;;;;;20.40;15.43;;;;;;;;;;5063891;28;20189;-77
2022/11/27 12:43:59;;;;;;;17.40;13.67;;;;;;;;;;5067511;28;20208;-78
2022/11/27 12:46:25;;;;;;;14.47;12.57;;;;;;;;;;5067236;28;20230;-76
2022/11/27 12:48:55;;;;;;;16.57;12.73;;;;;;;;;;5087955;28;20177;-79
2022/11/27 12:51:30;;;;;;;15.37;12.00;;;;;;;;;;5065353;28;20188;-79
2022/11/27 12:53:59;;;;;;;14.93;11.93;;;;;;;;;;5084293;28;20686;-78
2022/11/27 12:56:35;;;;;;;15.90;12.70;;;;;;;;;;5080283;28;20226;-81
2022/11/27 12:59:20;;;;;;;17.13;13.20;;;;;;;;;;5076792;28;20607;-81
2022/11/27 13:01:50;;;;;;;17.67;13.70;;;;;;;;;;5096196;28;20707;-80
2022/11/27 13:04:23;;;;;;;18.23;14.63;;;;;;;;;;5077457;28;20583;-79
2022/11/27 13:06:55;;;;;;;19.53;14.73;;;;;;;;;;5088169;28;20201;-78
2022/11/27 13:09:34;;;;;;;17.43;14.07;;;;;;;;;;5074261;28;20589;-78
2022/11/27 13:12:01;;;;;;;20.30;14.83;;;;;;;;;;5089649;28;20188;-78
2022/11/27 13:14:27;;;;;;;18.20;14.70;;;;;;;;;;5097457;28;20241;-79
2022/11/27 13:16:56;;;;;;;18.57;14.23;;;;;;;;;;5081696;28;20358;-78
2022/11/27 13:19:33;;;;;;;19.93;14.83;;;;;;;;;;5098330;28;20185;-78
2022/11/27 13:22:00;;;;;;;20.23;14.33;;;;;;;;;;5091406;28;20215;-78
2022/11/27 13:24:27;;;;;;;19.27;14.63;;;;;;;;;;5103036;28;20179;-79
2022/11/27 13:26:57;;;;;;;20.00;14.53;;;;;;;;;;5077352;28;20241;-78
2022/11/27 13:29:26;;;;;;;19.27;15.23;;;;;;;;;;5065701;28;20182;-81
2022/11/27 13:31:54;;;;;;;20.47;15.17;;;;;;;;;;5098988;28;20215;-80
2022/11/27 13:34:22;;;;;;;17.27;13.53;;;;;;;;;;5068077;28;20860;-78
2022/11/27 13:37:00;;;;;;;17.90;14.50;;;;;;;;;;5078112;28;20200;-80
2022/11/27 13:39:36;;;;;;;15.83;12.90;;;;;;;;;;5093606;28;20879;-79
2022/11/27 13:42:12;;;;;;;17.93;13.97;;;;;;;;;;5075343;28;20200;-78
2022/11/27 13:44:41;;;;;;;19.87;14.23;;;;;;;;;;5087658;28;20251;-76
2022/11/27 13:47:09;;;;;;;18.40;13.87;;;;;;;;;;5065908;28;20546;-77
2022/11/27 13:49:36;;;;;;;18.03;13.57;;;;;;;;;;5086078;28;20180;-77
2022/11/27 13:52:04;;;;;;;18.60;15.10;;;;;;;;;;5088272;28;20253;-77
2022/11/27 13:54:30;;;;;;;18.67;14.73;;;;;;;;;;5094065;28;20547;-77
2022/11/27 13:56:56;;;;;;;19.00;15.27;;;;;;;;;;5068101;28;20205;-77
2022/11/27 13:59:24;;;;;;;20.50;14.97;;;;;;;;;;5090466;28;20249;-77
2022/11/27 14:01:53;;;;;;;19.00;15.10;;;;;;;;;;5088016;28;20208;-77
2022/11/27 14:04:19;;;;;;;21.23;14.87;;;;;;;;;;5090749;28;20275;-77
2022/11/27 14:06:51;;;;;;;21.73;14.70;;;;;;;;;;5074233;28;20208;-77
2022/11/27 14:09:17;;;;;;;18.20;14.40;;;;;;;;;;5080149;28;20180;-77
2022/11/27 14:11:45;;;;;;;22.13;15.37;;;;;;;;;;5092877;28;20187;-77
2022/11/27 14:14:16;;;;;;;25.10;15.47;;;;;;;;;;5080092;28;20180;-77
2022/11/27 14:16:42;;;;;;;22.27;15.67;;;;;;;;;;5081903;28;20292;-77
2022/11/27 14:19:27;;;;;;;20.97;15.97;;;;;;;;;;5088817;28;20180;-77
2022/11/27 14:21:53;;;;;;;23.50;16.43;;;;;;;;;;5089131;28;20241;-77
2022/11/27 14:24:22;;;;;;;25.47;18.40;;;;;;;;;;5081025;28;20240;-77
2022/11/27 14:26:48;;;;;;;32.33;22.43;;;;;;;;;;5089723;28;20208;-77
2022/11/27 14:29:14;;;;;;;27.20;19.83;;;;;;;;;;5092827;28;20181;-77